Date,TemperatureHighF,TemperatureAvgF,TemperatureLowF,DewpointHighF,DewpointAvgF,DewpointLowF,HumidityHigh,HumidityAvg,HumidityLow,PressureMaxIn,PressureMinIn,WindSpeedMaxMPH,WindSpeedAvgMPH,GustSpeedMaxMPH,PrecipitationSumIn
2013-12-1,46,35,24,30,26,20,97,72,54,30.34,29.95,3,0,0,0.00
2013-12-2,44,32,25,36,30,25,99,91,69,29.95,29.82,2,0,0,0.00
2013-12-3,42,30,24,37,29,23,99,95,80,29.95,29.82,2,0,0,0.00
2013-12-4,48,37,24,34,31,23,98,80,57,30.09,29.95,3,0,0,0.00
2013-12-5,54,48,39,53,47,34,99,96,83,30.07,29.86,3,0,0,0.14
2013-12-6,53,42,32,53,41,32,99,96,85,30.10,29.80,5,1,0,0.54
2013-12-7,39,31,23,34,27,18,99,85,54,30.46,30.05,4,1,0,0.07
2013-12-8,31,27,20,24,20,16,90,73,65,30.55,30.38,2,0,0,0.00
2013-12-9,34,32,27,33,31,23,99,97,85,30.35,29.88,5,1,0,0.09
2013-12-10,34,30,21,32,28,17,99,92,78,30.01,29.77,5,1,0,0.03
2013-12-11,32,25,18,19,16,14,85,70,57,30.23,30.02,9,2,0,0.00
2013-12-12,27,18,9,15,8,4,82,63,40,30.29,30.04,6,2,0,0.00
2013-12-13,33,24,17,17,11,5,75,56,47,30.29,30.00,9,3,0,0.00
2013-12-14,23,18,15,14,12,9,86,76,58,30.47,29.87,3,1,0,0.00
2013-12-15,38,27,18,31,22,16,95,83,63,29.83,29.47,5,1,0,0.01
2013-12-16,29,21,4,22,9,0,83,59,38,30.14,29.70,7,2,0,0.00
2013-12-17,18,12,-2,14,7,-6,86,83,80,30.17,29.89,2,0,0,0.00
2013-12-18,38,22,5,24,15,1,86,75,53,30.06,29.88,4,1,0,0.01
2013-12-19,46,32,22,26,21,16,84,67,40,30.09,29.93,5,1,0,0.28
2013-12-20,55,36,27,32,28,24,92,75,40,30.04,29.87,3,0,0,0.28
2013-12-21,59,40,31,43,36,29,99,84,55,29.91,29.80,2,0,0,0.01
2013-12-22,65,55,36,62,53,36,99,93,81,29.87,29.67,5,2,0,0.11
2013-12-23,55,46,36,55,45,33,99,98,90,30.10,29.85,4,1,0,0.71
2013-12-24,36,29,20,33,23,9,93,78,58,30.27,30.03,6,1,0,0.01
2013-12-25,27,17,8,13,7,4,86,65,40,30.49,30.28,4,1,0,0.00
2013-12-26,34,26,20,24,19,12,95,76,62,30.37,30.08,6,1,0,0.00
2013-12-27,38,29,20,23,20,16,86,70,49,30.28,30.17,7,1,0,0.01
2013-12-28,50,30,18,32,23,16,96,79,40,30.19,29.98,5,1,0,0.00
2013-12-29,38,33,26,38,32,24,99,96,78,29.99,29.42,5,1,0,0.85
2013-12-30,41,30,14,37,22,6,99,73,47,30.16,29.61,6,2,0,0.00
2013-12-31,30,20,10,20,11,5,83,68,49,30.19,29.97,5,1,0,0.00